Pittsburgh, Pennsylvania
Traffic Map
Current Weather Conditions
Pittsburgh, Pennsylvania
Broken Clouds
Broken Clouds
68°
Feels Like: 68°
Wind Chill: 68° Ceiling: 6500
Heat Index: 68° Visibility: 10mi
Dew Point: 54° Wind: 9mph
Humidity: 61% Direction: 350° (N)
Pressure: 29.99in Gusts: 18mph
Raw Report DataKAGC 290153Z 35008G16KT 10SM BKN065 BKN080 20/12 A2999 RMK AO2 SLP152 T02000122
Traffic Incident Summary
Active as of:
Severity:
Category:
InformationThere was an issue retrieving the traffic information for this location. Please try a different location or try again shortly.
Advertisements
Track Severe Weather on mobile